Time;durP1;ratioP1;P1;durP2;ratioP2;P2;SDS_P1;SDS_P2;PMS_P1;PMS_P2;Temp;Humidity;BMP_temperature;BMP_pressure;BME280_temperature;BME280_humidity;BME280_pressure;Samples;Min_cycle;Max_cycle;Signal;HPM_P1;HPM_P2
2022/05/04 00:01:31;;;;;;;10.57;9.50;;;;;;;10.26;71.66;101071.94;5003129;28;20896;-72
2022/05/04 00:03:56;;;;;;;11.60;10.43;;;;;;;10.25;72.43;101085.31;4992774;28;20562;-73
2022/05/04 00:06:26;;;;;;;10.43;9.45;;;;;;;10.31;71.44;101076.88;4980104;28;20010;-73
2022/05/04 00:08:51;;;;;;;14.35;10.13;;;;;;;10.05;72.79;101079.84;4973247;28;20694;-73
2022/05/04 00:11:17;;;;;;;11.23;10.00;;;;;;;9.94;73.44;101088.66;4983613;28;20785;-73
2022/05/04 00:13:42;;;;;;;12.85;9.80;;;;;;;9.80;73.24;101083.66;5005717;28;20017;-73
2022/05/04 00:16:07;;;;;;;11.55;9.77;;;;;;;9.75;73.85;101089.28;4940925;28;20071;-72
2022/05/04 00:18:33;;;;;;;10.95;9.95;;;;;;;9.85;73.74;101083.28;4967311;28;20391;-72
2022/05/04 00:20:58;;;;;;;10.70;9.60;;;;;;;9.81;72.75;101087.97;4977944;28;20492;-73
2022/05/04 00:23:24;;;;;;;10.98;9.88;;;;;;;10.03;72.90;101078.31;4970601;28;20817;-73
2022/05/04 00:25:49;;;;;;;10.77;9.68;;;;;;;9.93;72.75;101080.84;4975063;28;20086;-72
2022/05/04 00:28:15;;;;;;;10.65;9.65;;;;;;;9.78;73.34;101085.56;4989471;28;20040;-72
2022/05/04 00:30:40;;;;;;;13.38;10.13;;;;;;;9.65;74.04;101079.59;4991321;28;20033;-73
2022/05/04 00:33:06;;;;;;;11.48;9.75;;;;;;;9.59;74.10;101087.03;4963705;28;20013;-72
2022/05/04 00:35:31;;;;;;;11.73;9.73;;;;;;;9.79;73.06;101084.63;4977627;28;20977;-73
2022/05/04 00:37:56;;;;;;;12.43;11.13;;;;;;;9.58;73.76;101082.72;5011857;28;20229;-73
2022/05/04 00:40:22;;;;;;;13.05;10.40;;;;;;;9.77;73.83;101081.22;4999190;28;20037;-73
2022/05/04 00:42:47;;;;;;;11.90;10.80;;;;;;;9.70;73.66;101087.97;4974455;28;20021;-73
2022/05/04 00:45:12;;;;;;;13.27;11.55;;;;;;;9.48;74.23;101089.69;4996079;28;20026;-73
2022/05/04 00:47:38;;;;;;;12.13;10.93;;;;;;;9.36;75.39;101082.72;5002734;28;20029;-73
2022/05/04 00:50:07;;;;;;;12.13;10.93;;;;;;;9.58;74.14;101082.72;4998385;27;20537;-72
2022/05/04 00:52:37;;;;;;;11.77;10.68;;;;;;;9.66;73.65;101084.75;5006658;27;20020;-75
2022/05/04 00:55:03;;;;;;;12.57;11.27;;;;;;;9.69;73.28;101086.31;5023406;27;20025;-71
2022/05/04 01:00:13;;;;;;;12.68;10.95;;;;;;;9.40;74.38;101092.09;5006754;28;20376;-73
2022/05/04 01:02:39;;;;;;;12.35;11.15;;;;;;;9.31;75.27;101090.16;5028937;28;20209;-73
2022/05/04 01:05:05;;;;;;;17.27;10.85;;;;;;;9.22;75.74;101091.72;4969668;28;20956;-73
2022/05/04 01:07:31;;;;;;;13.60;10.57;;;;;;;9.09;76.09;101078.63;4993457;28;20112;-72
2022/05/04 01:09:56;;;;;;;12.07;10.80;;;;;;;9.07;75.50;101083.22;4975791;28;20044;-72
2022/05/04 01:12:22;;;;;;;14.88;10.98;;;;;;;9.20;74.83;101083.94;4975612;28;20310;-72
2022/05/04 01:14:48;;;;;;;11.43;10.23;;;;;;;9.33;74.08;101082.97;5000450;28;20078;-73
2022/05/04 01:17:13;;;;;;;12.40;10.90;;;;;;;9.10;75.27;101083.78;4972227;28;20010;-73
2022/05/04 01:19:38;;;;;;;14.65;12.32;;;;;;;8.91;75.77;101068.56;4999402;28;20032;-73
2022/05/04 01:22:04;;;;;;;13.50;11.20;;;;;;;9.00;76.01;101085.47;4994771;28;20461;-72
2022/05/04 01:24:29;;;;;;;12.00;10.63;;;;;;;8.95;75.88;101079.69;4993169;28;20009;-72
2022/05/04 01:26:54;;;;;;;14.93;11.18;;;;;;;8.90;76.11;101082.69;4991373;28;20764;-73
2022/05/04 01:29:21;;;;;;;12.65;11.18;;;;;;;8.81;76.13;101088.66;4982712;28;20030;-73
2022/05/04 01:31:46;;;;;;;12.68;11.30;;;;;;;8.75;75.90;101083.88;4956195;28;20029;-73
2022/05/04 01:34:11;;;;;;;14.10;11.35;;;;;;;8.65;76.61;101086.34;4955318;28;20014;-72
2022/05/04 01:36:37;;;;;;;13.15;11.55;;;;;;;8.60;77.07;101083.22;4968163;28;20021;-73
2022/05/04 01:39:02;;;;;;;15.98;11.85;;;;;;;8.48;77.06;101077.09;4968145;28;20426;-73
2022/05/04 01:44:12;;;;;;;12.73;11.40;;;;;;;8.51;77.21;101078.66;4957781;28;20426;-74
2022/05/04 01:46:37;;;;;;;14.57;11.23;;;;;;;8.40;77.63;101079.41;4998256;28;20791;-74
2022/05/04 01:49:02;;;;;;;13.13;11.60;;;;;;;8.46;77.41;101088.69;4936590;28;20058;-73
2022/05/04 01:51:28;;;;;;;12.98;11.00;;;;;;;8.36;77.73;101091.16;4953166;28;20332;-73
2022/05/04 01:53:53;;;;;;;12.65;11.18;;;;;;;8.35;77.39;101092.13;4990393;28;20018;-73
2022/05/04 01:56:18;;;;;;;12.50;11.20;;;;;;;8.22;77.99;101094.78;4991951;28;20009;-72
2022/05/04 01:58:44;;;;;;;14.43;11.82;;;;;;;8.17;78.28;101100.41;4964018;28;20716;-72
2022/05/04 02:01:09;;;;;;;13.23;11.82;;;;;;;8.08;78.47;101098.47;4953135;28;20010;-73
2022/05/04 02:03:34;;;;;;;16.88;11.70;;;;;;;8.11;78.57;101106.16;4938263;28;20010;-73
2022/05/04 02:06:00;;;;;;;13.32;11.95;;;;;;;8.17;77.81;101092.50;4967692;28;20022;-73
2022/05/04 02:08:25;;;;;;;13.95;11.57;;;;;;;8.15;77.91;101097.06;4963687;28;20074;-72
2022/05/04 02:10:50;;;;;;;13.20;11.80;;;;;;;8.23;77.53;101094.72;4962633;28;20033;-72
2022/05/04 02:13:16;;;;;;;12.10;10.90;;;;;;;8.43;76.46;101093.22;4944385;28;20595;-73
2022/05/04 02:15:41;;;;;;;11.55;10.52;;;;;;;8.51;75.56;101092.66;4947490;28;20014;-72
2022/05/04 02:18:06;;;;;;;14.68;11.63;;;;;;;8.34;76.30;101093.91;4988536;28;20344;-73
2022/05/04 02:20:32;;;;;;;15.13;10.85;;;;;;;8.19;76.79;101102.94;4970903;28;20009;-72
2022/05/04 02:22:57;;;;;;;12.00;10.80;;;;;;;8.21;76.64;101096.59;4989664;28;20351;-72
2022/05/04 02:25:22;;;;;;;13.13;10.38;;;;;;;8.34;76.54;101091.25;4969691;28;20017;-73
2022/05/04 02:27:48;;;;;;;11.60;10.40;;;;;;;8.33;76.21;101083.47;4953778;28;20053;-72
2022/05/04 02:30:13;;;;;;;12.27;10.43;;;;;;;8.39;76.01;101077.72;4953569;28;20041;-73
2022/05/04 02:32:39;;;;;;;11.40;10.30;;;;;;;8.32;75.17;101082.63;4941009;28;20799;-73
2022/05/04 02:37:55;;;;;;;14.45;10.50;;;;;;;8.09;76.74;101097.50;4998503;28;20110;-74
2022/05/04 02:40:20;;;;;;;12.35;11.05;;;;;;;7.95;77.47;101092.38;5010197;27;20018;-73
2022/05/04 02:42:46;;;;;;;11.98;10.40;;;;;;;7.88;77.38;101092.84;4990813;28;20355;-73
2022/05/04 02:45:11;;;;;;;11.82;10.27;;;;;;;7.81;77.85;101088.97;4982901;28;20014;-73
2022/05/04 02:47:38;;;;;;;12.55;10.25;;;;;;;7.80;77.68;101089.91;4980605;28;20056;-74
2022/05/04 02:50:04;;;;;;;14.25;10.50;;;;;;;7.79;78.01;101093.50;4979749;28;20271;-74
2022/05/04 02:52:29;;;;;;;11.40;10.30;;;;;;;7.74;77.59;101091.19;4974711;28;20431;-73
2022/05/04 02:54:54;;;;;;;10.93;9.82;;;;;;;7.69;78.22;101088.03;4978005;28;20028;-73
2022/05/04 02:57:20;;;;;;;11.23;10.20;;;;;;;7.71;78.19;101082.66;4992341;28;20758;-74
2022/05/04 02:59:45;;;;;;;15.68;10.98;;;;;;;7.57;78.81;101075.72;4978358;28;20199;-74
2022/05/04 03:02:28;;;;;;;10.98;9.85;;;;;;;7.59;78.38;101073.00;4991654;28;20020;-73
2022/05/04 03:05:02;;;;;;;12.60;10.10;;;;;;;7.58;78.73;101074.78;4980099;28;20286;-73
2022/05/04 03:07:27;;;;;;;13.20;10.87;;;;;;;7.59;78.98;101073.00;4976653;28;20014;-73
2022/05/04 03:09:53;;;;;;;12.80;10.40;;;;;;;7.87;77.76;101071.88;4999496;28;20262;-73
2022/05/04 03:12:19;;;;;;;12.32;10.30;;;;;;;7.87;77.29;101070.06;4999861;28;20455;-73
2022/05/04 03:14:44;;;;;;;11.30;10.18;;;;;;;7.76;77.80;101071.81;4971307;28;20884;-73
2022/05/04 03:17:10;;;;;;;15.05;10.38;;;;;;;7.57;78.71;101076.59;4966448;28;20013;-73
2022/05/04 03:19:35;;;;;;;16.58;10.50;;;;;;;7.69;78.48;101074.03;4991152;28;19998;-73
2022/05/04 03:22:00;;;;;;;12.48;9.18;;;;;;;7.91;77.00;101068.06;4991231;28;20017;-74
2022/05/04 03:24:26;;;;;;;14.10;9.50;;;;;;;8.14;76.05;101062.91;4961720;28;20093;-73
2022/05/04 03:26:51;;;;;;;13.40;9.45;;;;;;;8.14;76.11;101068.19;4977917;28;20070;-74
2022/05/04 03:29:17;;;;;;;11.43;9.68;;;;;;;8.03;76.51;101061.06;4978574;28;20188;-73
2022/05/04 03:31:42;;;;;;;12.13;9.93;;;;;;;7.89;77.25;101072.59;4959537;28;20037;-72
2022/05/04 03:34:07;;;;;;;12.25;10.48;;;;;;;7.75;77.97;101068.31;4959895;28;20452;-72
2022/05/04 03:36:35;;;;;;;12.00;10.45;;;;;;;7.78;78.45;101077.78;4988333;28;20327;-73
2022/05/04 03:39:01;;;;;;;13.75;10.88;;;;;;;7.73;78.76;101073.69;4979700;28;20102;-74
2022/05/04 03:41:26;;;;;;;12.00;10.70;;;;;;;7.74;78.99;101067.50;4995469;28;20021;-74
2022/05/04 03:43:51;;;;;;;13.13;10.70;;;;;;;7.72;78.94;101068.53;5015688;28;20030;-74
2022/05/04 03:46:18;;;;;;;13.15;10.48;;;;;;;7.64;79.16;101065.63;5002277;28;20045;-74
2022/05/04 03:48:44;;;;;;;13.90;10.40;;;;;;;7.55;79.68;101057.41;4988591;28;20080;-74
2022/05/04 03:51:10;;;;;;;12.75;10.65;;;;;;;7.61;80.10;101069.31;4973370;28;20010;-74
2022/05/04 03:53:36;;;;;;;12.18;11.07;;;;;;;7.59;79.95;101062.44;4965767;28;20018;-74
2022/05/04 03:56:01;;;;;;;13.45;11.32;;;;;;;7.61;79.79;101065.84;4969840;28;20082;-73
2022/05/04 03:58:27;;;;;;;12.70;11.18;;;;;;;7.62;79.62;101073.63;4995889;28;20007;-73
2022/05/04 04:00:52;;;;;;;12.90;11.70;;;;;;;7.56;79.76;101071.44;4972668;28;20251;-73
2022/05/04 04:03:17;;;;;;;15.43;12.15;;;;;;;7.52;80.16;101070.81;4982304;28;20022;-73
2022/05/04 04:05:43;;;;;;;12.57;11.27;;;;;;;7.87;78.67;101067.44;4995655;28;20009;-72
2022/05/04 04:08:08;;;;;;;12.77;10.80;;;;;;;7.69;78.36;101053.78;4983310;28;20137;-72
2022/05/04 04:10:34;;;;;;;12.57;11.30;;;;;;;7.61;78.96;101071.94;5000354;28;20030;-72
2022/05/04 04:12:59;;;;;;;13.93;11.18;;;;;;;7.53;79.56;101074.25;4986296;28;20522;-72
2022/05/04 04:15:24;;;;;;;14.13;12.50;;;;;;;7.56;79.65;101077.53;5011095;28;20014;-72
2022/05/04 04:17:50;;;;;;;13.73;11.32;;;;;;;7.55;79.55;101083.75;4990487;28;20097;-74
2022/05/04 04:23:00;;;;;;;;;;;;;;;7.55;79.67;101073.22;5005649;28;20027;-73
2022/05/04 04:25:26;;;;;;;12.85;11.13;;;;;;;7.80;78.94;101083.78;4985159;28;19904;-73
2022/05/04 04:27:51;;;;;;;15.48;11.60;;;;;;;7.96;77.74;101081.72;4998578;28;20025;-73
2022/05/04 04:30:17;;;;;;;13.43;12.02;;;;;;;7.91;77.65;101079.44;4990301;28;20029;-72
2022/05/04 04:32:43;;;;;;;13.40;12.00;;;;;;;7.83;78.11;101078.31;4980187;28;20952;-74
2022/05/04 04:35:08;;;;;;;14.05;12.48;;;;;;;7.96;78.01;101089.63;4962672;28;20789;-74
2022/05/04 04:37:34;;;;;;;13.70;12.35;;;;;;;7.89;78.24;101102.41;4979035;28;20013;-73
2022/05/04 04:39:59;;;;;;;14.43;12.68;;;;;;;7.85;78.84;101095.69;5017933;28;20031;-72
2022/05/04 04:42:24;;;;;;;17.63;12.95;;;;;;;7.77;79.21;101091.91;4979080;28;20440;-73
2022/05/04 04:44:50;;;;;;;16.02;12.80;;;;;;;7.78;78.86;101088.34;4957648;28;20018;-72
2022/05/04 04:47:15;;;;;;;15.10;12.80;;;;;;;7.70;79.45;101091.53;4978785;28;20002;-73
2022/05/04 04:49:40;;;;;;;14.23;12.77;;;;;;;7.68;79.90;101099.50;5003930;27;20049;-73
2022/05/04 04:52:07;;;;;;;14.77;11.88;;;;;;;7.63;79.88;101095.53;4978159;28;20022;-72
2022/05/04 04:54:32;;;;;;;18.80;12.98;;;;;;;7.65;80.12;101101.53;4992821;28;20191;-74
2022/05/04 04:56:57;;;;;;;13.85;12.45;;;;;;;7.65;80.19;101098.91;4992430;28;20583;-73
2022/05/04 04:59:23;;;;;;;16.98;13.63;;;;;;;7.71;80.15;101103.72;4969392;28;20022;-73
2022/05/04 05:01:48;;;;;;;15.27;13.63;;;;;;;7.75;80.47;101110.47;4955853;28;20036;-73
2022/05/04 05:04:14;;;;;;;15.23;13.60;;;;;;;7.76;80.09;101111.31;4994556;28;20022;-73
2022/05/04 05:06:39;;;;;;;14.75;13.35;;;;;;;7.76;80.68;101106.06;4962218;28;20021;-72
2022/05/04 05:09:04;;;;;;;15.00;13.52;;;;;;;7.87;80.03;101111.41;5014168;28;20144;-73
2022/05/04 05:11:30;;;;;;;14.98;13.38;;;;;;;8.07;79.50;101107.31;4976610;28;20014;-74
2022/05/04 05:16:39;;;;;;;18.20;12.90;;;;;;;8.03;79.72;101121.66;4966241;28;20544;-74
2022/05/04 05:19:05;;;;;;;15.63;13.20;;;;;;;8.00;79.53;101116.63;4959764;28;20925;-74
2022/05/04 05:21:30;;;;;;;17.35;13.98;;;;;;;8.01;80.64;101115.66;4964570;28;20010;-74
2022/05/04 05:23:55;;;;;;;18.50;14.82;;;;;;;7.96;80.84;101112.53;4979312;28;20096;-72
2022/05/04 05:26:21;;;;;;;19.17;14.38;;;;;;;8.02;80.83;101119.97;4996195;28;20941;-71
2022/05/04 05:28:47;;;;;;;15.35;13.75;;;;;;;8.10;80.49;101115.00;4992134;28;20524;-73
2022/05/04 05:31:13;;;;;;;17.88;14.20;;;;;;;8.20;80.12;101118.63;4967130;28;20026;-73
2022/05/04 05:33:39;;;;;;;16.38;13.68;;;;;;;8.21;79.89;101117.69;4982431;28;20013;-74
2022/05/04 05:36:04;;;;;;;15.82;14.00;;;;;;;8.35;79.72;101111.41;4959850;28;20858;-73
2022/05/04 05:38:30;;;;;;;20.67;14.23;;;;;;;8.48;79.58;101108.72;5016776;28;20829;-72
2022/05/04 05:40:55;;;;;;;19.67;13.90;;;;;;;8.37;79.39;101117.41;4990353;28;20090;-74
2022/05/04 05:43:20;;;;;;;19.42;13.98;;;;;;;8.34;79.90;101111.53;4979209;28;20483;-73
2022/05/04 05:45:46;;;;;;;23.92;14.95;;;;;;;8.37;79.87;101112.13;4954806;28;20014;-74
2022/05/04 05:48:11;;;;;;;21.60;14.65;;;;;;;8.39;80.29;101117.28;4985567;28;20017;-72
2022/05/04 05:50:37;;;;;;;17.00;14.30;;;;;;;8.40;80.74;101111.06;5019650;28;20033;-71
2022/05/04 05:53:02;;;;;;;18.08;13.85;;;;;;;8.49;80.79;101118.34;4984869;28;20021;-71
2022/05/04 05:55:28;;;;;;;16.77;14.00;;;;;;;8.62;80.38;101117.44;4984365;28;20117;-72
2022/05/04 05:57:53;;;;;;;19.52;14.27;;;;;;;8.68;80.57;101119.59;4953199;28;20021;-73
2022/05/04 06:00:19;;;;;;;16.65;13.60;;;;;;;8.85;80.36;101113.88;5004088;28;20029;-73
2022/05/04 06:02:45;;;;;;;17.02;13.80;;;;;;;8.96;79.75;101117.50;4962476;28;20018;-72
2022/05/04 06:05:10;;;;;;;16.70;12.98;;;;;;;9.02;80.04;101115.22;4997862;28;20087;-72
2022/05/04 06:07:37;;;;;;;17.67;12.90;;;;;;;9.09;80.17;101126.16;4960170;28;20043;-73
2022/05/04 06:10:03;;;;;;;15.57;13.30;;;;;;;9.07;79.45;101120.16;4961855;28;20101;-73
2022/05/04 06:12:28;;;;;;;16.60;14.07;;;;;;;9.10;80.03;101114.66;5002711;28;20006;-71
2022/05/04 06:14:54;;;;;;;14.43;12.93;;;;;;;9.31;79.57;101116.56;4956009;28;20292;-73
2022/05/04 06:17:19;;;;;;;20.48;13.60;;;;;;;9.49;78.83;101119.59;4971579;28;20100;-73
2022/05/04 06:19:45;;;;;;;15.43;12.77;;;;;;;9.60;78.30;101112.50;4975699;28;20090;-72
2022/05/04 06:22:10;;;;;;;18.40;13.40;;;;;;;9.57;77.25;101112.72;4994799;28;20347;-73
2022/05/04 06:24:36;;;;;;;17.75;13.13;;;;;;;9.62;77.65;101112.38;4979463;28;20443;-71
2022/05/04 06:27:01;;;;;;;16.55;12.45;;;;;;;9.66;77.08;101112.97;4987186;28;20796;-72
2022/05/04 06:34:06;;;;;;;17.90;12.45;;;;;;;9.94;76.36;101114.25;4957856;28;20501;-73
2022/05/04 06:35:00;;;;;;;15.05;13.00;;;;;;;10.18;76.77;101121.16;4959077;28;20032;-72
2022/05/04 06:37:25;;;;;;;15.45;12.75;;;;;;;10.32;75.50;101119.06;5009651;28;20014;-73
2022/05/04 06:39:51;;;;;;;16.33;13.60;;;;;;;10.38;74.42;101117.75;5008719;28;20089;-74
2022/05/04 06:42:17;;;;;;;16.20;12.35;;;;;;;10.46;73.02;101122.41;4987072;27;20836;-73
2022/05/04 06:44:43;;;;;;;14.15;11.63;;;;;;;10.51;72.85;101132.63;5001367;28;20132;-73
2022/05/04 06:47:08;;;;;;;13.63;12.05;;;;;;;10.58;72.13;101124.03;5000507;28;20447;-72
2022/05/04 06:49:33;;;;;;;18.73;12.57;;;;;;;10.65;72.43;101127.84;5023647;28;21018;-73
2022/05/04 06:51:59;;;;;;;17.25;13.15;;;;;;;10.76;72.74;101132.25;4984750;28;20029;-73
2022/05/04 06:54:24;;;;;;;16.17;13.38;;;;;;;10.81;72.40;101134.50;4980537;28;20022;-73
2022/05/04 06:56:50;;;;;;;18.05;13.10;;;;;;;10.77;72.21;101135.75;4975312;28;20022;-73
2022/05/04 06:59:15;;;;;;;16.20;13.20;;;;;;;10.91;71.26;101135.41;5000390;28;20017;-73
2022/05/04 07:01:40;;;;;;;18.75;13.07;;;;;;;11.06;71.63;101138.59;5020924;28;20835;-72
2022/05/04 07:04:06;;;;;;;17.77;13.15;;;;;;;11.15;71.51;101142.25;5008221;27;20464;-73
2022/05/04 07:06:32;;;;;;;20.30;13.55;;;;;;;11.24;70.48;101149.44;5031147;28;20567;-74
2022/05/04 07:08:57;;;;;;;16.23;12.77;;;;;;;11.26;69.91;101141.34;5013825;28;20025;-76
2022/05/04 07:11:22;;;;;;;14.73;12.23;;;;;;;11.40;70.60;101148.13;4996083;28;20014;-73
2022/05/04 07:13:48;;;;;;;16.38;12.65;;;;;;;11.48;70.66;101148.28;5030581;28;20016;-73
2022/05/04 07:16:14;;;;;;;17.35;12.27;;;;;;;11.52;70.10;101142.59;5009351;28;20016;-73
2022/05/04 07:18:39;;;;;;;18.05;12.95;;;;;;;11.62;69.53;101136.47;4981962;28;20017;-73
2022/05/04 07:21:05;;;;;;;15.60;12.10;;;;;;;11.81;69.46;101141.00;5023411;28;20017;-74
2022/05/04 07:23:30;;;;;;;14.55;12.70;;;;;;;12.14;68.07;101139.00;5009230;28;20033;-74
2022/05/04 07:25:56;;;;;;;14.93;12.48;;;;;;;12.26;66.98;101142.41;5008635;28;20018;-72
2022/05/04 07:28:21;;;;;;;16.40;12.20;;;;;;;12.27;66.54;101141.41;4984159;28;20037;-74
2022/05/04 07:30:47;;;;;;;15.82;12.60;;;;;;;12.47;65.74;101148.41;5020382;28;20785;-75
2022/05/04 07:33:13;;;;;;;14.75;12.38;;;;;;;12.59;66.52;101146.44;5015766;28;20018;-75
2022/05/04 07:35:38;;;;;;;18.40;12.27;;;;;;;12.57;65.51;101142.28;5037161;28;20001;-76
2022/05/04 07:38:04;;;;;;;12.90;11.45;;;;;;;12.76;65.90;101141.41;5056881;28;20425;-74
2022/05/04 07:43:13;;;;;;;12.98;11.55;;;;;;;13.00;64.37;101147.13;4996653;28;20198;-73
2022/05/04 07:45:38;;;;;;;15.98;11.77;;;;;;;13.01;64.17;101137.31;5013281;28;20458;-74
2022/05/04 07:48:04;;;;;;;13.57;12.02;;;;;;;13.12;64.25;101138.97;5009803;28;20037;-74
2022/05/04 07:50:29;;;;;;;16.55;12.23;;;;;;;13.11;63.17;101147.94;4971952;28;20322;-75
2022/05/04 07:52:55;;;;;;;17.30;12.68;;;;;;;13.12;62.98;101150.44;4972764;28;20018;-75
2022/05/04 07:55:20;;;;;;;17.13;12.77;;;;;;;13.12;64.73;101149.63;5007120;28;20932;-73
2022/05/04 07:57:48;;;;;;;17.73;13.25;;;;;;;13.12;63.89;101153.09;4986403;28;20878;-74
2022/05/04 08:05:42;;;;;;;19.65;12.90;;;;;;;13.42;62.98;101161.84;5010540;28;20324;-74
2022/05/04 08:08:07;;;;;;;20.10;12.95;;;;;;;13.50;63.07;101161.97;4971941;28;20132;-75
2022/05/04 08:10:33;;;;;;;14.95;12.60;;;;;;;13.53;62.12;101158.19;4973942;28;20096;-75
2022/05/04 08:13:01;;;;;;;16.17;12.30;;;;;;;13.93;61.33;101156.19;5006523;28;20006;-73
2022/05/04 08:15:26;;;;;;;14.63;12.05;;;;;;;14.18;61.41;101157.28;5014581;28;20132;-75
2022/05/04 08:17:52;;;;;;;17.50;12.63;;;;;;;14.31;60.26;101157.75;4987878;28;20034;-75
2022/05/04 08:20:17;;;;;;;19.90;12.07;;;;;;;14.66;59.27;101157.94;5005442;28;20868;-74
2022/05/04 08:22:43;;;;;;;16.67;12.80;;;;;;;14.64;58.33;101166.09;5006164;28;20077;-75
2022/05/04 08:25:09;;;;;;;16.27;12.15;;;;;;;14.66;57.38;101163.28;5024509;28;20469;-74
2022/05/04 08:27:34;;;;;;;12.80;11.60;;;;;;;14.82;58.86;101155.41;4986240;28;20024;-75
2022/05/04 08:30:00;;;;;;;18.73;11.82;;;;;;;14.85;57.47;101154.25;4969988;28;20018;-74
2022/05/04 08:32:29;;;;;;;15.45;11.02;;;;;;;15.13;58.60;101162.13;4989348;28;20024;-74
2022/05/04 08:34:56;;;;;;;13.82;10.85;;;;;;;14.68;57.21;101159.47;5022331;28;20017;-73
2022/05/04 08:37:21;;;;;;;12.40;10.80;;;;;;;14.75;57.45;101157.84;4984565;28;20030;-73
2022/05/04 08:39:46;;;;;;;13.15;11.77;;;;;;;14.89;58.35;101155.63;4985512;28;20095;-74
2022/05/04 08:42:13;;;;;;;16.48;11.75;;;;;;;14.99;58.15;101151.06;5000860;28;20826;-75
2022/05/04 08:44:40;;;;;;;15.57;11.70;;;;;;;15.25;58.03;101150.22;4961665;28;19999;-74
2022/05/04 08:47:05;;;;;;;15.15;12.45;;;;;;;15.31;56.98;101154.91;4979840;28;20020;-72
2022/05/04 08:49:31;;;;;;;14.65;11.68;;;;;;;15.42;56.41;101154.63;4966711;28;20151;-74
2022/05/04 08:51:56;;;;;;;13.48;11.98;;;;;;;15.45;55.71;101156.16;4965004;28;20791;-75
2022/05/04 08:54:22;;;;;;;17.30;11.65;;;;;;;15.77;54.86;101155.47;4969561;28;20117;-73
2022/05/04 08:56:47;;;;;;;14.82;11.70;;;;;;;15.87;53.75;101155.38;5004710;28;20018;-73
2022/05/04 08:59:12;;;;;;;14.73;11.60;;;;;;;16.06;53.78;101159.59;4984955;28;20553;-73
2022/05/04 09:01:38;;;;;;;14.52;11.82;;;;;;;16.25;53.86;101152.31;4980620;28;20452;-73
2022/05/04 09:04:04;;;;;;;15.23;12.30;;;;;;;16.44;53.65;101153.81;4968709;28;20022;-74
2022/05/04 09:06:33;;;;;;;16.85;13.15;;;;;;;16.74;53.03;101152.34;4975917;28;20008;-73
2022/05/04 09:09:03;;;;;;;16.58;12.75;;;;;;;16.89;51.94;101149.84;4984156;28;20527;-75
2022/05/04 09:11:28;;;;;;;16.25;12.32;;;;;;;16.85;52.88;101158.34;5001411;28;20041;-73
2022/05/04 09:13:54;;;;;;;13.85;11.27;;;;;;;16.94;51.98;101150.19;4977015;28;20344;-75
2022/05/04 09:16:26;;;;;;;15.15;12.10;;;;;;;17.13;52.94;101148.16;4973359;28;20014;-75
2022/05/04 09:18:51;;;;;;;15.15;11.80;;;;;;;17.24;52.65;101146.97;5005277;28;20025;-75
2022/05/04 09:21:21;;;;;;;29.25;11.82;;;;;;;17.26;51.48;101145.78;5002204;28;20053;-75
2022/05/04 09:23:49;;;;;;;13.23;11.70;;;;;;;17.83;49.87;101142.06;4985469;28;20021;-76
2022/05/04 09:26:14;;;;;;;15.98;11.93;;;;;;;17.73;49.09;101145.97;4997888;28;20011;-75
2022/05/04 09:28:40;;;;;;;16.25;12.23;;;;;;;17.86;49.57;101144.38;4978834;28;20029;-75
2022/05/04 09:31:06;;;;;;;15.43;11.95;;;;;;;18.15;51.12;101140.25;4966789;28;20011;-76
2022/05/04 09:33:34;;;;;;;13.15;11.57;;;;;;;18.12;48.00;101140.59;4986374;28;20551;-74
2022/05/04 09:36:00;;;;;;;14.13;11.15;;;;;;;18.33;48.02;101137.28;4985581;28;20449;-75
2022/05/04 09:46:44;;;;;;;15.18;11.63;;;;;;;18.42;46.61;101131.88;4964397;28;20041;-75
2022/05/04 09:49:19;;;;;;;14.10;11.60;;;;;;;18.80;48.63;101134.56;4968500;28;20393;-75
2022/05/04 09:51:51;;;;;;;16.52;11.48;;;;;;;19.29;46.74;101130.56;4961428;28;20547;-75
2022/05/04 09:54:17;;;;;;;15.18;11.55;;;;;;;19.12;47.03;101129.91;4957646;28;20121;-73
2022/05/04 09:56:52;;;;;;;16.90;12.18;;;;;;;19.66;45.23;101131.50;4975446;28;20532;-74
2022/05/04 09:59:23;;;;;;;14.93;11.95;;;;;;;19.85;44.67;101135.47;4990712;28;20026;-72
2022/05/04 10:01:49;;;;;;;13.13;11.60;;;;;;;20.24;42.67;101134.25;4987752;28;20111;-75
2022/05/04 10:04:15;;;;;;;13.32;11.63;;;;;;;20.63;43.05;101134.78;4973141;28;20799;-75
2022/05/04 10:06:41;;;;;;;16.52;12.60;;;;;;;21.18;41.53;101124.25;4989569;28;20006;-75
2022/05/04 10:09:06;;;;;;;17.67;13.13;;;;;;;20.90;40.10;101139.41;4986867;28;20022;-76
2022/05/04 10:11:35;;;;;;;14.43;12.10;;;;;;;21.22;40.88;101129.06;4971270;28;20020;-73
2022/05/04 10:14:12;;;;;;;14.38;11.73;;;;;;;21.63;40.12;101131.97;4987934;28;20020;-76
2022/05/04 10:17:04;;;;;;;13.57;12.20;;;;;;;21.59;39.73;101139.66;4999201;28;20825;-76
2022/05/04 10:19:42;;;;;;;13.98;12.43;;;;;;;21.70;38.91;101135.53;4987129;28;20528;-76
2022/05/04 10:22:09;;;;;;;19.13;15.95;;;;;;;21.50;40.12;101128.16;4987998;28;20024;-74
2022/05/04 10:24:35;;;;;;;15.32;12.80;;;;;;;21.59;39.94;101124.31;4990497;28;20021;-75
2022/05/04 10:27:27;;;;;;;13.68;12.18;;;;;;;22.20;39.79;101133.41;4968733;28;20144;-76
2022/05/04 10:32:59;;;;;;;13.52;12.20;;;;;;;23.03;39.01;101123.25;4980163;28;21003;-76
2022/05/04 10:35:37;;;;;;;12.38;10.98;;;;;;;23.38;37.22;101129.25;4973124;28;20178;-75
2022/05/04 10:38:26;;;;;;;14.63;11.82;;;;;;;23.71;38.71;101119.38;5000500;28;20021;-75
2022/05/04 10:40:56;;;;;;;13.48;11.93;;;;;;;23.79;37.62;101124.53;4993985;28;20108;-73
2022/05/04 10:43:47;;;;;;;13.40;11.95;;;;;;;24.25;36.24;101128.03;5008936;28;20712;-74
2022/05/04 10:46:20;;;;;;;15.30;13.77;;;;;;;24.25;34.92;101128.84;5030827;28;20085;-76
2022/05/04 10:49:06;;;;;;;15.63;12.50;;;;;;;24.56;34.36;101123.63;5013917;28;20435;-74
2022/05/04 10:51:36;;;;;;;16.67;11.68;;;;;;;24.53;33.80;101120.31;4991781;28;20399;-76
2022/05/04 10:54:09;;;;;;;16.90;12.65;;;;;;;24.54;34.29;101118.44;4984862;28;20029;-73
2022/05/04 10:56:55;;;;;;;12.95;11.55;;;;;;;24.47;35.58;101123.09;4991918;28;20185;-75
2022/05/04 10:59:30;;;;;;;17.55;11.68;;;;;;;24.95;36.33;101124.38;5023983;27;20820;-75
2022/05/04 11:02:06;;;;;;;14.95;11.73;;;;;;;25.26;33.71;101115.28;5013326;27;20201;-73
2022/05/04 11:04:32;;;;;;;16.52;12.35;;;;;;;24.91;34.27;101110.44;4984438;27;20075;-75
2022/05/04 11:07:00;;;;;;;21.75;12.50;;;;;;;24.38;34.24;101118.97;5029606;27;20028;-73
2022/05/04 11:09:33;;;;;;;14.63;11.73;;;;;;;23.97;34.30;101108.44;5048247;27;20116;-75
2022/05/04 11:11:59;;;;;;;12.65;11.35;;;;;;;23.87;35.40;101110.78;5030125;27;20025;-73
2022/05/04 11:14:25;;;;;;;18.83;11.90;;;;;;;23.88;34.38;101109.72;5012410;28;20494;-75
2022/05/04 11:16:52;;;;;;;15.73;11.40;;;;;;;23.90;35.57;101102.25;5026217;28;20703;-76
2022/05/04 11:19:17;;;;;;;11.82;10.20;;;;;;;24.63;34.71;101103.59;5028086;28;20025;-76
2022/05/04 11:21:43;;;;;;;16.95;12.60;;;;;;;24.63;32.52;101100.91;4993451;28;20782;-74
2022/05/04 11:24:09;;;;;;;15.40;12.23;;;;;;;24.96;33.30;101109.75;5018389;28;20456;-76
2022/05/04 11:26:45;;;;;;;16.55;13.65;;;;;;;24.96;32.29;101105.19;4991474;28;20003;-76
2022/05/04 11:29:13;;;;;;;16.25;12.07;;;;;;;24.82;33.37;101104.50;5012977;28;20044;-76
2022/05/04 11:31:53;;;;;;;13.73;11.88;;;;;;;25.00;33.74;101110.97;5013101;28;20089;-75
2022/05/04 11:34:19;;;;;;;19.15;13.00;;;;;;;24.88;32.68;101105.47;5038596;28;20330;-75
2022/05/04 11:36:45;;;;;;;19.33;13.25;;;;;;;25.05;32.49;101099.47;5021992;28;20315;-76
2022/05/04 11:39:16;;;;;;;17.02;13.60;;;;;;;25.61;32.01;101092.16;4996095;28;20117;-75
2022/05/04 11:41:44;;;;;;;14.93;12.82;;;;;;;25.89;31.28;101091.59;5007429;28;20013;-77
2022/05/04 11:44:09;;;;;;;15.60;13.88;;;;;;;25.97;31.66;101088.53;5012662;27;20009;-74
2022/05/04 11:46:35;;;;;;;20.88;15.40;;;;;;;26.17;31.42;101084.72;5009355;28;20453;-75
2022/05/04 11:49:01;;;;;;;17.63;13.43;;;;;;;26.05;31.10;101084.72;5008665;28;20879;-76